sensor_id;sensor_type;location;lat;lon;timestamp;P1;durP1;ratioP1;P2;durP2;ratioP2
65879;SDS011;52661;51.364;6.054;2022-07-22T00:01:28;8.15;;;2.35;;
65879;SDS011;52661;51.364;6.054;2022-07-22T00:03:54;7.97;;;2.13;;
65879;SDS011;52661;51.364;6.054;2022-07-22T00:06:20;4.88;;;2.13;;
65879;SDS011;52661;51.364;6.054;2022-07-22T00:08:45;9.10;;;2.60;;
65879;SDS011;52661;51.364;6.054;2022-07-22T00:11:11;7.43;;;1.80;;
65879;SDS011;52661;51.364;6.054;2022-07-22T00:13:36;6.95;;;1.33;;
65879;SDS011;52661;51.364;6.054;2022-07-22T00:16:01;4.50;;;1.77;;
65879;SDS011;52661;51.364;6.054;2022-07-22T00:18:27;5.10;;;2.33;;
65879;SDS011;52661;51.364;6.054;2022-07-22T00:20:53;5.95;;;1.95;;
65879;SDS011;52661;51.364;6.054;2022-07-22T00:23:18;5.93;;;2.20;;
65879;SDS011;52661;51.364;6.054;2022-07-22T00:25:44;5.07;;;1.90;;
65879;SDS011;52661;51.364;6.054;2022-07-22T00:28:09;6.17;;;2.23;;
65879;SDS011;52661;51.364;6.054;2022-07-22T00:30:34;7.63;;;2.17;;
65879;SDS011;52661;51.364;6.054;2022-07-22T00:33:00;5.57;;;2.00;;
65879;SDS011;52661;51.364;6.054;2022-07-22T00:35:25;5.40;;;2.03;;
65879;SDS011;52661;51.364;6.054;2022-07-22T00:37:51;6.65;;;2.45;;
65879;SDS011;52661;51.364;6.054;2022-07-22T00:40:16;5.30;;;1.98;;
65879;SDS011;52661;51.364;6.054;2022-07-22T00:42:41;7.07;;;1.87;;
65879;SDS011;52661;51.364;6.054;2022-07-22T00:45:07;4.88;;;2.53;;
65879;SDS011;52661;51.364;6.054;2022-07-22T00:47:33;6.15;;;2.28;;
65879;SDS011;52661;51.364;6.054;2022-07-22T00:49:59;8.52;;;2.30;;
65879;SDS011;52661;51.364;6.054;2022-07-22T00:52:24;5.88;;;2.33;;
65879;SDS011;52661;51.364;6.054;2022-07-22T00:54:50;7.75;;;2.35;;
65879;SDS011;52661;51.364;6.054;2022-07-22T00:57:16;9.13;;;2.75;;
65879;SDS011;52661;51.364;6.054;2022-07-22T00:59:41;6.95;;;1.98;;
65879;SDS011;52661;51.364;6.054;2022-07-22T01:02:07;7.82;;;1.92;;
65879;SDS011;52661;51.364;6.054;2022-07-22T01:04:33;8.23;;;2.78;;
65879;SDS011;52661;51.364;6.054;2022-07-22T01:06:58;7.00;;;2.35;;
65879;SDS011;52661;51.364;6.054;2022-07-22T01:09:23;7.72;;;2.15;;
65879;SDS011;52661;51.364;6.054;2022-07-22T01:11:49;7.57;;;3.13;;
65879;SDS011;52661;51.364;6.054;2022-07-22T01:14:15;4.07;;;2.15;;
65879;SDS011;52661;51.364;6.054;2022-07-22T01:16:40;6.88;;;2.40;;
65879;SDS011;52661;51.364;6.054;2022-07-22T01:19:05;14.32;;;3.30;;
65879;SDS011;52661;51.364;6.054;2022-07-22T01:21:31;9.60;;;2.50;;
65879;SDS011;52661;51.364;6.054;2022-07-22T01:23:57;7.85;;;2.88;;
65879;SDS011;52661;51.364;6.054;2022-07-22T01:26:22;4.80;;;2.03;;
65879;SDS011;52661;51.364;6.054;2022-07-22T01:28:48;8.17;;;2.30;;
65879;SDS011;52661;51.364;6.054;2022-07-22T01:31:13;6.65;;;2.17;;
65879;SDS011;52661;51.364;6.054;2022-07-22T01:33:39;10.88;;;2.63;;
65879;SDS011;52661;51.364;6.054;2022-07-22T01:36:05;6.05;;;2.05;;
65879;SDS011;52661;51.364;6.054;2022-07-22T01:38:31;9.18;;;2.30;;
65879;SDS011;52661;51.364;6.054;2022-07-22T01:40:56;4.80;;;2.42;;
65879;SDS011;52661;51.364;6.054;2022-07-22T01:43:22;7.83;;;2.57;;
65879;SDS011;52661;51.364;6.054;2022-07-22T01:45:49;8.50;;;2.67;;
65879;SDS011;52661;51.364;6.054;2022-07-22T01:48:16;7.15;;;3.15;;
65879;SDS011;52661;51.364;6.054;2022-07-22T01:50:42;7.07;;;2.22;;
65879;SDS011;52661;51.364;6.054;2022-07-22T01:53:08;7.15;;;2.65;;
65879;SDS011;52661;51.364;6.054;2022-07-22T01:55:33;5.80;;;1.95;;
65879;SDS011;52661;51.364;6.054;2022-07-22T01:57:59;7.68;;;2.13;;
65879;SDS011;52661;51.364;6.054;2022-07-22T02:00:25;5.10;;;2.22;;
65879;SDS011;52661;51.364;6.054;2022-07-22T02:02:50;8.02;;;2.75;;
65879;SDS011;52661;51.364;6.054;2022-07-22T02:05:15;5.90;;;1.93;;
65879;SDS011;52661;51.364;6.054;2022-07-22T02:07:41;9.55;;;2.45;;
65879;SDS011;52661;51.364;6.054;2022-07-22T02:10:06;8.73;;;2.35;;
65879;SDS011;52661;51.364;6.054;2022-07-22T02:12:32;9.05;;;2.90;;
65879;SDS011;52661;51.364;6.054;2022-07-22T02:14:57;4.93;;;2.33;;
65879;SDS011;52661;51.364;6.054;2022-07-22T02:17:23;8.20;;;2.20;;
65879;SDS011;52661;51.364;6.054;2022-07-22T02:19:49;6.25;;;2.45;;
65879;SDS011;52661;51.364;6.054;2022-07-22T02:22:14;8.88;;;2.42;;
65879;SDS011;52661;51.364;6.054;2022-07-22T02:24:39;9.93;;;2.40;;
65879;SDS011;52661;51.364;6.054;2022-07-22T02:27:05;6.35;;;2.50;;
65879;SDS011;52661;51.364;6.054;2022-07-22T02:29:31;7.18;;;2.17;;
65879;SDS011;52661;51.364;6.054;2022-07-22T02:31:57;6.70;;;2.42;;
65879;SDS011;52661;51.364;6.054;2022-07-22T02:34:23;7.15;;;2.78;;
65879;SDS011;52661;51.364;6.054;2022-07-22T02:36:48;9.57;;;2.57;;
65879;SDS011;52661;51.364;6.054;2022-07-22T02:39:13;5.10;;;1.70;;
65879;SDS011;52661;51.364;6.054;2022-07-22T02:41:39;7.47;;;2.38;;
65879;SDS011;52661;51.364;6.054;2022-07-22T02:44:04;6.55;;;2.15;;
65879;SDS011;52661;51.364;6.054;2022-07-22T02:46:29;8.35;;;2.38;;
65879;SDS011;52661;51.364;6.054;2022-07-22T02:48:55;7.28;;;2.47;;
65879;SDS011;52661;51.364;6.054;2022-07-22T02:51:20;7.13;;;2.20;;
65879;SDS011;52661;51.364;6.054;2022-07-22T02:53:47;4.25;;;1.85;;
65879;SDS011;52661;51.364;6.054;2022-07-22T02:56:12;10.10;;;2.40;;
65879;SDS011;52661;51.364;6.054;2022-07-22T02:58:38;8.25;;;3.17;;
65879;SDS011;52661;51.364;6.054;2022-07-22T03:01:04;6.95;;;2.15;;
65879;SDS011;52661;51.364;6.054;2022-07-22T03:03:29;6.57;;;2.08;;
65879;SDS011;52661;51.364;6.054;2022-07-22T03:05:55;10.10;;;2.95;;
65879;SDS011;52661;51.364;6.054;2022-07-22T03:08:20;6.40;;;2.47;;
65879;SDS011;52661;51.364;6.054;2022-07-22T03:10:45;5.70;;;2.13;;
65879;SDS011;52661;51.364;6.054;2022-07-22T03:13:11;5.70;;;2.33;;
65879;SDS011;52661;51.364;6.054;2022-07-22T03:15:36;6.47;;;2.47;;
65879;SDS011;52661;51.364;6.054;2022-07-22T03:18:01;7.07;;;2.05;;
65879;SDS011;52661;51.364;6.054;2022-07-22T03:20:27;8.43;;;2.10;;
65879;SDS011;52661;51.364;6.054;2022-07-22T03:22:53;12.23;;;2.40;;
65879;SDS011;52661;51.364;6.054;2022-07-22T03:25:18;7.73;;;2.30;;
65879;SDS011;52661;51.364;6.054;2022-07-22T03:27:43;8.13;;;2.58;;
65879;SDS011;52661;51.364;6.054;2022-07-22T03:30:09;9.13;;;2.33;;
65879;SDS011;52661;51.364;6.054;2022-07-22T03:32:34;6.95;;;2.25;;
65879;SDS011;52661;51.364;6.054;2022-07-22T03:35:00;6.40;;;2.10;;
65879;SDS011;52661;51.364;6.054;2022-07-22T03:37:25;10.13;;;2.15;;
65879;SDS011;52661;51.364;6.054;2022-07-22T03:39:50;8.68;;;2.22;;
65879;SDS011;52661;51.364;6.054;2022-07-22T03:42:16;8.57;;;2.77;;
65879;SDS011;52661;51.364;6.054;2022-07-22T03:44:41;7.93;;;2.60;;
65879;SDS011;52661;51.364;6.054;2022-07-22T03:47:06;9.07;;;3.10;;
65879;SDS011;52661;51.364;6.054;2022-07-22T03:49:32;6.45;;;2.30;;
65879;SDS011;52661;51.364;6.054;2022-07-22T03:51:57;6.10;;;2.75;;
65879;SDS011;52661;51.364;6.054;2022-07-22T03:54:23;5.27;;;2.30;;
65879;SDS011;52661;51.364;6.054;2022-07-22T03:56:48;10.35;;;2.42;;
65879;SDS011;52661;51.364;6.054;2022-07-22T03:59:14;6.00;;;2.22;;
65879;SDS011;52661;51.364;6.054;2022-07-22T04:01:40;6.93;;;2.58;;
65879;SDS011;52661;51.364;6.054;2022-07-22T04:04:06;6.88;;;2.28;;
65879;SDS011;52661;51.364;6.054;2022-07-22T04:06:31;11.05;;;2.97;;
65879;SDS011;52661;51.364;6.054;2022-07-22T04:08:57;6.88;;;2.40;;
65879;SDS011;52661;51.364;6.054;2022-07-22T04:11:22;8.05;;;2.75;;
65879;SDS011;52661;51.364;6.054;2022-07-22T04:13:47;8.63;;;2.72;;
65879;SDS011;52661;51.364;6.054;2022-07-22T04:16:13;7.85;;;2.58;;
65879;SDS011;52661;51.364;6.054;2022-07-22T04:18:38;8.85;;;2.47;;
65879;SDS011;52661;51.364;6.054;2022-07-22T04:21:03;8.30;;;2.20;;
65879;SDS011;52661;51.364;6.054;2022-07-22T04:23:29;9.18;;;2.15;;
65879;SDS011;52661;51.364;6.054;2022-07-22T04:25:54;10.20;;;2.83;;
65879;SDS011;52661;51.364;6.054;2022-07-22T04:28:20;8.63;;;2.75;;
65879;SDS011;52661;51.364;6.054;2022-07-22T04:30:46;8.98;;;3.13;;
65879;SDS011;52661;51.364;6.054;2022-07-22T04:33:11;9.23;;;2.72;;
65879;SDS011;52661;51.364;6.054;2022-07-22T04:35:37;8.60;;;2.67;;
65879;SDS011;52661;51.364;6.054;2022-07-22T04:38:02;9.60;;;2.60;;
65879;SDS011;52661;51.364;6.054;2022-07-22T04:40:27;8.90;;;2.67;;
65879;SDS011;52661;51.364;6.054;2022-07-22T04:42:53;7.55;;;2.90;;
65879;SDS011;52661;51.364;6.054;2022-07-22T04:45:18;8.10;;;2.43;;
65879;SDS011;52661;51.364;6.054;2022-07-22T04:47:44;9.10;;;3.65;;
65879;SDS011;52661;51.364;6.054;2022-07-22T04:50:09;9.50;;;3.00;;
65879;SDS011;52661;51.364;6.054;2022-07-22T04:52:34;9.50;;;2.80;;
65879;SDS011;52661;51.364;6.054;2022-07-22T04:55:00;12.07;;;3.00;;
65879;SDS011;52661;51.364;6.054;2022-07-22T04:57:25;9.60;;;2.70;;
65879;SDS011;52661;51.364;6.054;2022-07-22T04:59:51;10.13;;;3.30;;
65879;SDS011;52661;51.364;6.054;2022-07-22T05:02:17;9.73;;;3.10;;
65879;SDS011;52661;51.364;6.054;2022-07-22T05:04:42;7.40;;;2.60;;
65879;SDS011;52661;51.364;6.054;2022-07-22T05:07:07;7.07;;;2.23;;
65879;SDS011;52661;51.364;6.054;2022-07-22T05:09:33;9.07;;;2.40;;
65879;SDS011;52661;51.364;6.054;2022-07-22T05:11:58;6.63;;;2.33;;
65879;SDS011;52661;51.364;6.054;2022-07-22T05:14:24;7.65;;;2.33;;
65879;SDS011;52661;51.364;6.054;2022-07-22T05:16:49;8.57;;;2.80;;
65879;SDS011;52661;51.364;6.054;2022-07-22T05:19:14;8.70;;;2.78;;
65879;SDS011;52661;51.364;6.054;2022-07-22T05:21:40;8.90;;;2.42;;
65879;SDS011;52661;51.364;6.054;2022-07-22T05:24:05;7.30;;;2.20;;
65879;SDS011;52661;51.364;6.054;2022-07-22T05:26:30;7.30;;;2.33;;
65879;SDS011;52661;51.364;6.054;2022-07-22T05:28:58;8.15;;;2.38;;
65879;SDS011;52661;51.364;6.054;2022-07-22T05:31:23;9.05;;;2.35;;
65879;SDS011;52661;51.364;6.054;2022-07-22T05:33:48;9.88;;;3.55;;
65879;SDS011;52661;51.364;6.054;2022-07-22T05:36:14;9.95;;;2.92;;
65879;SDS011;52661;51.364;6.054;2022-07-22T05:38:39;8.10;;;2.43;;
65879;SDS011;52661;51.364;6.054;2022-07-22T05:41:05;11.13;;;2.70;;
65879;SDS011;52661;51.364;6.054;2022-07-22T05:43:30;12.95;;;3.15;;
65879;SDS011;52661;51.364;6.054;2022-07-22T05:45:56;10.73;;;2.83;;
65879;SDS011;52661;51.364;6.054;2022-07-22T05:48:21;6.70;;;1.88;;
65879;SDS011;52661;51.364;6.054;2022-07-22T05:50:47;7.38;;;2.20;;
65879;SDS011;52661;51.364;6.054;2022-07-22T05:53:12;7.43;;;2.97;;
65879;SDS011;52661;51.364;6.054;2022-07-22T05:55:37;9.03;;;2.73;;
65879;SDS011;52661;51.364;6.054;2022-07-22T05:58:03;9.53;;;2.60;;
65879;SDS011;52661;51.364;6.054;2022-07-22T06:00:28;6.83;;;2.93;;
65879;SDS011;52661;51.364;6.054;2022-07-22T06:02:54;8.68;;;2.38;;
65879;SDS011;52661;51.364;6.054;2022-07-22T06:05:19;10.18;;;3.05;;
65879;SDS011;52661;51.364;6.054;2022-07-22T06:07:45;7.75;;;3.05;;
65879;SDS011;52661;51.364;6.054;2022-07-22T06:10:10;8.98;;;2.33;;
65879;SDS011;52661;51.364;6.054;2022-07-22T06:12:36;6.53;;;2.22;;
65879;SDS011;52661;51.364;6.054;2022-07-22T06:15:01;6.75;;;2.63;;
65879;SDS011;52661;51.364;6.054;2022-07-22T06:17:27;8.25;;;2.58;;
65879;SDS011;52661;51.364;6.054;2022-07-22T06:19:52;7.63;;;2.33;;
65879;SDS011;52661;51.364;6.054;2022-07-22T06:22:18;8.40;;;3.13;;
65879;SDS011;52661;51.364;6.054;2022-07-22T06:24:43;5.90;;;2.65;;
65879;SDS011;52661;51.364;6.054;2022-07-22T06:27:09;11.88;;;3.22;;
65879;SDS011;52661;51.364;6.054;2022-07-22T06:29:35;6.15;;;2.38;;
65879;SDS011;52661;51.364;6.054;2022-07-22T06:32:01;7.85;;;2.38;;
65879;SDS011;52661;51.364;6.054;2022-07-22T06:34:26;7.28;;;2.50;;
65879;SDS011;52661;51.364;6.054;2022-07-22T06:36:51;7.28;;;2.60;;
65879;SDS011;52661;51.364;6.054;2022-07-22T06:39:17;8.50;;;4.30;;
65879;SDS011;52661;51.364;6.054;2022-07-22T06:41:42;10.88;;;3.90;;
65879;SDS011;52661;51.364;6.054;2022-07-22T06:44:08;7.03;;;2.90;;
65879;SDS011;52661;51.364;6.054;2022-07-22T06:46:33;6.07;;;2.17;;
65879;SDS011;52661;51.364;6.054;2022-07-22T06:48:58;5.90;;;2.25;;
65879;SDS011;52661;51.364;6.054;2022-07-22T06:51:24;2.83;;;1.00;;
65879;SDS011;52661;51.364;6.054;2022-07-22T06:53:49;4.93;;;1.47;;
65879;SDS011;52661;51.364;6.054;2022-07-22T06:56:15;4.22;;;1.70;;
65879;SDS011;52661;51.364;6.054;2022-07-22T06:58:40;5.47;;;1.88;;
65879;SDS011;52661;51.364;6.054;2022-07-22T07:01:05;5.83;;;2.13;;
65879;SDS011;52661;51.364;6.054;2022-07-22T07:03:31;6.85;;;1.50;;
65879;SDS011;52661;51.364;6.054;2022-07-22T07:05:56;7.43;;;1.70;;
65879;SDS011;52661;51.364;6.054;2022-07-22T07:08:22;5.28;;;1.70;;
65879;SDS011;52661;51.364;6.054;2022-07-22T07:10:47;5.73;;;1.93;;
65879;SDS011;52661;51.364;6.054;2022-07-22T07:13:13;7.05;;;1.90;;
65879;SDS011;52661;51.364;6.054;2022-07-22T07:15:38;5.20;;;1.45;;
65879;SDS011;52661;51.364;6.054;2022-07-22T07:18:04;4.65;;;1.65;;
65879;SDS011;52661;51.364;6.054;2022-07-22T07:20:29;6.25;;;1.80;;
65879;SDS011;52661;51.364;6.054;2022-07-22T07:22:54;5.38;;;2.17;;
65879;SDS011;52661;51.364;6.054;2022-07-22T07:25:20;6.03;;;2.42;;
65879;SDS011;52661;51.364;6.054;2022-07-22T07:27:46;6.18;;;2.08;;
65879;SDS011;52661;51.364;6.054;2022-07-22T07:30:11;4.45;;;1.50;;
65879;SDS011;52661;51.364;6.054;2022-07-22T07:32:37;9.20;;;2.03;;
65879;SDS011;52661;51.364;6.054;2022-07-22T07:35:04;4.90;;;1.33;;
65879;SDS011;52661;51.364;6.054;2022-07-22T07:37:30;6.60;;;2.22;;
65879;SDS011;52661;51.364;6.054;2022-07-22T07:39:56;6.00;;;2.15;;
65879;SDS011;52661;51.364;6.054;2022-07-22T07:42:22;9.13;;;3.05;;
65879;SDS011;52661;51.364;6.054;2022-07-22T07:44:47;4.00;;;1.67;;
65879;SDS011;52661;51.364;6.054;2022-07-22T07:47:13;7.00;;;2.63;;
65879;SDS011;52661;51.364;6.054;2022-07-22T07:49:42;5.15;;;1.95;;
65879;SDS011;52661;51.364;6.054;2022-07-22T07:52:08;6.00;;;1.45;;
65879;SDS011;52661;51.364;6.054;2022-07-22T07:54:34;3.60;;;1.60;;
65879;SDS011;52661;51.364;6.054;2022-07-22T07:56:59;5.57;;;1.90;;
65879;SDS011;52661;51.364;6.054;2022-07-22T07:59:24;5.67;;;1.80;;
65879;SDS011;52661;51.364;6.054;2022-07-22T08:01:50;4.97;;;2.60;;
65879;SDS011;52661;51.364;6.054;2022-07-22T08:04:15;4.20;;;1.60;;
65879;SDS011;52661;51.364;6.054;2022-07-22T08:06:40;4.30;;;1.43;;
65879;SDS011;52661;51.364;6.054;2022-07-22T08:09:06;7.13;;;1.93;;
65879;SDS011;52661;51.364;6.054;2022-07-22T08:11:31;4.33;;;1.33;;
65879;SDS011;52661;51.364;6.054;2022-07-22T08:13:56;4.57;;;1.30;;
65879;SDS011;52661;51.364;6.054;2022-07-22T08:16:21;5.07;;;1.43;;
65879;SDS011;52661;51.364;6.054;2022-07-22T08:18:47;3.47;;;0.93;;
65879;SDS011;52661;51.364;6.054;2022-07-22T08:21:12;3.30;;;0.93;;
65879;SDS011;52661;51.364;6.054;2022-07-22T08:23:37;2.50;;;0.77;;
65879;SDS011;52661;51.364;6.054;2022-07-22T08:26:03;4.15;;;0.82;;
65879;SDS011;52661;51.364;6.054;2022-07-22T08:28:28;3.08;;;1.05;;
65879;SDS011;52661;51.364;6.054;2022-07-22T08:30:54;1.63;;;0.63;;
65879;SDS011;52661;51.364;6.054;2022-07-22T08:33:19;2.67;;;0.70;;
65879;SDS011;52661;51.364;6.054;2022-07-22T08:35:45;3.67;;;1.30;;
65879;SDS011;52661;51.364;6.054;2022-07-22T08:38:10;2.45;;;0.90;;
65879;SDS011;52661;51.364;6.054;2022-07-22T08:40:36;2.30;;;0.55;;
65879;SDS011;52661;51.364;6.054;2022-07-22T08:43:01;2.65;;;0.73;;
65879;SDS011;52661;51.364;6.054;2022-07-22T08:45:28;3.17;;;0.82;;
65879;SDS011;52661;51.364;6.054;2022-07-22T08:47:54;2.95;;;1.00;;
65879;SDS011;52661;51.364;6.054;2022-07-22T08:50:19;4.45;;;1.02;;
65879;SDS011;52661;51.364;6.054;2022-07-22T08:52:45;2.47;;;0.50;;
65879;SDS011;52661;51.364;6.054;2022-07-22T08:55:10;1.67;;;0.52;;
65879;SDS011;52661;51.364;6.054;2022-07-22T08:57:36;2.22;;;0.80;;
65879;SDS011;52661;51.364;6.054;2022-07-22T09:00:11;1.80;;;0.52;;
65879;SDS011;52661;51.364;6.054;2022-07-22T09:02:39;1.95;;;0.95;;
65879;SDS011;52661;51.364;6.054;2022-07-22T09:07:33;4.75;;;0.90;;
65879;SDS011;52661;51.364;6.054;2022-07-22T09:10:04;3.25;;;0.40;;
65879;SDS011;52661;51.364;6.054;2022-07-22T09:12:32;6.03;;;0.77;;
65879;SDS011;52661;51.364;6.054;2022-07-22T09:14:58;4.30;;;0.77;;
65879;SDS011;52661;51.364;6.054;2022-07-22T09:19:52;2.65;;;0.60;;
65879;SDS011;52661;51.364;6.054;2022-07-22T09:22:37;4.43;;;1.08;;
65879;SDS011;52661;51.364;6.054;2022-07-22T09:25:27;2.22;;;1.05;;
65879;SDS011;52661;51.364;6.054;2022-07-22T09:28:09;2.55;;;1.15;;
65879;SDS011;52661;51.364;6.054;2022-07-22T09:30:36;4.35;;;1.20;;
65879;SDS011;52661;51.364;6.054;2022-07-22T09:33:03;4.93;;;1.67;;
65879;SDS011;52661;51.364;6.054;2022-07-22T09:35:30;8.65;;;1.42;;
65879;SDS011;52661;51.364;6.054;2022-07-22T09:37:57;4.32;;;1.35;;
65879;SDS011;52661;51.364;6.054;2022-07-22T09:40:26;3.05;;;1.25;;
65879;SDS011;52661;51.364;6.054;2022-07-22T09:42:55;3.60;;;1.50;;
65879;SDS011;52661;51.364;6.054;2022-07-22T09:45:23;7.13;;;1.73;;
65879;SDS011;52661;51.364;6.054;2022-07-22T09:47:51;3.83;;;1.15;;
65879;SDS011;52661;51.364;6.054;2022-07-22T09:50:23;3.95;;;1.65;;
65879;SDS011;52661;51.364;6.054;2022-07-22T09:52:50;4.28;;;1.35;;
65879;SDS011;52661;51.364;6.054;2022-07-22T09:57:44;3.97;;;1.48;;
65879;SDS011;52661;51.364;6.054;2022-07-22T10:00:10;4.18;;;1.38;;
65879;SDS011;52661;51.364;6.054;2022-07-22T10:02:42;6.30;;;1.85;;
65879;SDS011;52661;51.364;6.054;2022-07-22T10:05:11;7.28;;;1.70;;
65879;SDS011;52661;51.364;6.054;2022-07-22T10:07:37;5.63;;;1.88;;
65879;SDS011;52661;51.364;6.054;2022-07-22T10:10:04;6.82;;;2.05;;
65879;SDS011;52661;51.364;6.054;2022-07-22T10:12:30;5.25;;;2.13;;
65879;SDS011;52661;51.364;6.054;2022-07-22T10:14:56;6.10;;;1.75;;
65879;SDS011;52661;51.364;6.054;2022-07-22T10:17:21;3.10;;;1.52;;
65879;SDS011;52661;51.364;6.054;2022-07-22T10:19:47;3.95;;;1.38;;
65879;SDS011;52661;51.364;6.054;2022-07-22T10:25:03;2.83;;;1.23;;
65879;SDS011;52661;51.364;6.054;2022-07-22T10:30:10;3.25;;;1.17;;
65879;SDS011;52661;51.364;6.054;2022-07-22T10:40:18;8.00;;;1.70;;
65879;SDS011;52661;51.364;6.054;2022-07-22T10:45:50;3.28;;;1.90;;
65879;SDS011;52661;51.364;6.054;2022-07-22T10:48:20;3.45;;;1.42;;
65879;SDS011;52661;51.364;6.054;2022-07-22T10:50:46;5.35;;;1.17;;
65879;SDS011;52661;51.364;6.054;2022-07-22T10:53:21;5.07;;;1.27;;
65879;SDS011;52661;51.364;6.054;2022-07-22T10:56:06;3.83;;;1.15;;
65879;SDS011;52661;51.364;6.054;2022-07-22T10:58:44;3.65;;;1.15;;
65879;SDS011;52661;51.364;6.054;2022-07-22T11:01:14;3.22;;;1.02;;
65879;SDS011;52661;51.364;6.054;2022-07-22T11:03:43;4.65;;;1.45;;
65879;SDS011;52661;51.364;6.054;2022-07-22T11:08:47;5.22;;;1.50;;
65879;SDS011;52661;51.364;6.054;2022-07-22T11:11:14;7.07;;;2.05;;
65879;SDS011;52661;51.364;6.054;2022-07-22T11:13:41;4.43;;;1.63;;
65879;SDS011;52661;51.364;6.054;2022-07-22T11:16:17;5.10;;;1.95;;
65879;SDS011;52661;51.364;6.054;2022-07-22T11:21:25;5.32;;;1.95;;
65879;SDS011;52661;51.364;6.054;2022-07-22T11:23:53;6.68;;;2.08;;
65879;SDS011;52661;51.364;6.054;2022-07-22T11:26:21;4.50;;;2.17;;
65879;SDS011;52661;51.364;6.054;2022-07-22T11:28:50;6.22;;;1.65;;
65879;SDS011;52661;51.364;6.054;2022-07-22T11:31:17;3.75;;;1.83;;
65879;SDS011;52661;51.364;6.054;2022-07-22T11:36:12;6.80;;;1.65;;
65879;SDS011;52661;51.364;6.054;2022-07-22T11:41:05;5.80;;;2.03;;
65879;SDS011;52661;51.364;6.054;2022-07-22T11:43:37;4.77;;;1.83;;
65879;SDS011;52661;51.364;6.054;2022-07-22T11:46:03;4.28;;;1.38;;
65879;SDS011;52661;51.364;6.054;2022-07-22T11:48:29;3.92;;;2.25;;
65879;SDS011;52661;51.364;6.054;2022-07-22T11:51:01;5.20;;;1.70;;
65879;SDS011;52661;51.364;6.054;2022-07-22T11:53:27;5.32;;;1.52;;
65879;SDS011;52661;51.364;6.054;2022-07-22T11:55:59;5.20;;;1.92;;
65879;SDS011;52661;51.364;6.054;2022-07-22T11:58:42;5.85;;;2.15;;
65879;SDS011;52661;51.364;6.054;2022-07-22T12:01:10;4.32;;;2.15;;
65879;SDS011;52661;51.364;6.054;2022-07-22T12:03:38;5.32;;;1.88;;
65879;SDS011;52661;51.364;6.054;2022-07-22T12:06:07;4.60;;;1.67;;
65879;SDS011;52661;51.364;6.054;2022-07-22T12:08:34;6.55;;;1.80;;
65879;SDS011;52661;51.364;6.054;2022-07-22T12:11:04;5.53;;;2.60;;
65879;SDS011;52661;51.364;6.054;2022-07-22T12:13:30;5.47;;;2.35;;
65879;SDS011;52661;51.364;6.054;2022-07-22T12:15:57;7.20;;;2.22;;
65879;SDS011;52661;51.364;6.054;2022-07-22T12:18:23;4.43;;;2.38;;
65879;SDS011;52661;51.364;6.054;2022-07-22T12:20:51;6.70;;;3.17;;
65879;SDS011;52661;51.364;6.054;2022-07-22T12:23:17;6.65;;;2.70;;
65879;SDS011;52661;51.364;6.054;2022-07-22T12:25:56;6.28;;;2.55;;
65879;SDS011;52661;51.364;6.054;2022-07-22T12:28:23;7.63;;;2.65;;
65879;SDS011;52661;51.364;6.054;2022-07-22T12:30:50;8.70;;;3.28;;
65879;SDS011;52661;51.364;6.054;2022-07-22T12:33:17;7.20;;;2.63;;
65879;SDS011;52661;51.364;6.054;2022-07-22T12:38:10;8.02;;;2.67;;
65879;SDS011;52661;51.364;6.054;2022-07-22T12:40:36;6.43;;;2.83;;
65879;SDS011;52661;51.364;6.054;2022-07-22T12:43:06;12.10;;;3.58;;
65879;SDS011;52661;51.364;6.054;2022-07-22T12:45:34;4.90;;;2.80;;
65879;SDS011;52661;51.364;6.054;2022-07-22T12:53:01;6.07;;;2.57;;
65879;SDS011;52661;51.364;6.054;2022-07-22T12:55:38;5.90;;;2.38;;
65879;SDS011;52661;51.364;6.054;2022-07-22T12:58:05;8.90;;;2.75;;
65879;SDS011;52661;51.364;6.054;2022-07-22T13:00:32;5.60;;;2.83;;
65879;SDS011;52661;51.364;6.054;2022-07-22T13:02:59;6.80;;;2.67;;
65879;SDS011;52661;51.364;6.054;2022-07-22T13:05:25;7.38;;;2.90;;
65879;SDS011;52661;51.364;6.054;2022-07-22T13:07:51;8.45;;;3.05;;
65879;SDS011;52661;51.364;6.054;2022-07-22T13:10:21;7.10;;;2.67;;
65879;SDS011;52661;51.364;6.054;2022-07-22T13:12:48;7.03;;;2.75;;
65879;SDS011;52661;51.364;6.054;2022-07-22T13:15:13;5.65;;;2.13;;
65879;SDS011;52661;51.364;6.054;2022-07-22T13:17:39;6.93;;;2.28;;
65879;SDS011;52661;51.364;6.054;2022-07-22T13:20:06;6.78;;;2.42;;
65879;SDS011;52661;51.364;6.054;2022-07-22T13:22:33;5.32;;;2.55;;
65879;SDS011;52661;51.364;6.054;2022-07-22T13:24:58;5.15;;;2.45;;
65879;SDS011;52661;51.364;6.054;2022-07-22T13:27:24;4.60;;;1.93;;
65879;SDS011;52661;51.364;6.054;2022-07-22T13:29:49;7.47;;;2.47;;
65879;SDS011;52661;51.364;6.054;2022-07-22T13:32:15;5.50;;;2.47;;
65879;SDS011;52661;51.364;6.054;2022-07-22T13:34:40;4.47;;;2.28;;
65879;SDS011;52661;51.364;6.054;2022-07-22T13:37:06;9.13;;;2.58;;
65879;SDS011;52661;51.364;6.054;2022-07-22T13:39:31;6.75;;;2.47;;
65879;SDS011;52661;51.364;6.054;2022-07-22T13:41:56;5.07;;;2.33;;
65879;SDS011;52661;51.364;6.054;2022-07-22T13:44:22;6.10;;;2.83;;
65879;SDS011;52661;51.364;6.054;2022-07-22T13:46:47;8.40;;;2.60;;
65879;SDS011;52661;51.364;6.054;2022-07-22T13:49:14;6.00;;;2.45;;
65879;SDS011;52661;51.364;6.054;2022-07-22T13:51:39;5.57;;;2.28;;
65879;SDS011;52661;51.364;6.054;2022-07-22T13:54:04;6.73;;;3.27;;
65879;SDS011;52661;51.364;6.054;2022-07-22T13:56:30;7.20;;;3.22;;
65879;SDS011;52661;51.364;6.054;2022-07-22T13:58:57;5.70;;;2.65;;
65879;SDS011;52661;51.364;6.054;2022-07-22T14:01:23;8.90;;;2.53;;
65879;SDS011;52661;51.364;6.054;2022-07-22T14:03:49;5.53;;;2.40;;
65879;SDS011;52661;51.364;6.054;2022-07-22T14:06:14;8.80;;;3.60;;
65879;SDS011;52661;51.364;6.054;2022-07-22T14:08:39;6.40;;;2.53;;
65879;SDS011;52661;51.364;6.054;2022-07-22T14:11:05;7.13;;;3.13;;
65879;SDS011;52661;51.364;6.054;2022-07-22T14:13:30;6.20;;;2.28;;
65879;SDS011;52661;51.364;6.054;2022-07-22T14:15:55;7.72;;;2.25;;
65879;SDS011;52661;51.364;6.054;2022-07-22T14:18:21;6.10;;;2.03;;
65879;SDS011;52661;51.364;6.054;2022-07-22T14:20:47;6.75;;;2.45;;
65879;SDS011;52661;51.364;6.054;2022-07-22T14:23:13;5.43;;;2.45;;
65879;SDS011;52661;51.364;6.054;2022-07-22T14:25:40;6.47;;;2.42;;
65879;SDS011;52661;51.364;6.054;2022-07-22T14:28:06;9.88;;;2.78;;
65879;SDS011;52661;51.364;6.054;2022-07-22T14:30:32;7.45;;;2.55;;
65879;SDS011;52661;51.364;6.054;2022-07-22T14:32:58;6.50;;;3.00;;
65879;SDS011;52661;51.364;6.054;2022-07-22T14:35:23;6.47;;;3.00;;
65879;SDS011;52661;51.364;6.054;2022-07-22T14:37:49;5.10;;;2.67;;
65879;SDS011;52661;51.364;6.054;2022-07-22T14:40:14;7.53;;;2.90;;
65879;SDS011;52661;51.364;6.054;2022-07-22T14:42:39;5.63;;;2.80;;
65879;SDS011;52661;51.364;6.054;2022-07-22T14:45:08;7.15;;;2.67;;
65879;SDS011;52661;51.364;6.054;2022-07-22T14:47:35;7.80;;;3.88;;
65879;SDS011;52661;51.364;6.054;2022-07-22T14:50:04;5.75;;;2.45;;
65879;SDS011;52661;51.364;6.054;2022-07-22T14:52:30;7.80;;;2.90;;
65879;SDS011;52661;51.364;6.054;2022-07-22T14:54:56;7.82;;;2.25;;
65879;SDS011;52661;51.364;6.054;2022-07-22T14:57:22;5.57;;;2.10;;
65879;SDS011;52661;51.364;6.054;2022-07-22T14:59:47;6.03;;;3.20;;
65879;SDS011;52661;51.364;6.054;2022-07-22T15:02:12;6.80;;;2.37;;
65879;SDS011;52661;51.364;6.054;2022-07-22T15:04:38;5.77;;;2.63;;
65879;SDS011;52661;51.364;6.054;2022-07-22T15:07:03;7.30;;;2.53;;
65879;SDS011;52661;51.364;6.054;2022-07-22T15:09:28;6.07;;;2.65;;
65879;SDS011;52661;51.364;6.054;2022-07-22T15:11:54;6.85;;;2.78;;
65879;SDS011;52661;51.364;6.054;2022-07-22T15:14:19;5.67;;;2.27;;
65879;SDS011;52661;51.364;6.054;2022-07-22T15:16:45;6.00;;;2.33;;
65879;SDS011;52661;51.364;6.054;2022-07-22T15:19:10;8.00;;;2.37;;
65879;SDS011;52661;51.364;6.054;2022-07-22T15:21:37;5.85;;;2.33;;
65879;SDS011;52661;51.364;6.054;2022-07-22T15:24:02;7.40;;;3.10;;